Humidity-temperature Sensor

Selected Measurement Type: Air Temperature

 
Air Temperature [°C]     6 entries per hour
Showing data from 3/17/2023 (00:00:00 Z) to 3/16/2023 (00:01:00 Z)
Previous Next [ Day | 3-Days | 7-Days ]
First Last
Prev [ Day | 3-Days | 7-Days ] Next
First Last

Start Time:     :
End Time:     :     
Time (in GMT) :00 :50 :40 :30 :20 :10
Previous Next [ Day | 3-Days | 7-Days ]
First Last
Prev [ Day | 3-Days | 7-Days ] Next
First Last


123 => good data
MM => data is determined as missing
-- => data not received/configured
Back to Top Back to Top
3/17/2023 00:00 to 23:10 27.96 27.74 27.86 27.86 27.91 27.56
3/16/2023 23:00 to 22:10 28.12 27.96 28.17 28.08 28.22 28.21
3/16/2023 22:00 to 21:10 28.10 28.21 28.19 28.05 28.16 28.23
3/16/2023 21:00 to 20:10 28.11 28.06 28.11 27.85 27.91 27.69
3/16/2023 20:00 to 19:10 27.58 27.55 27.61 27.47 27.60 27.57
3/16/2023 19:00 to 18:10 27.55 27.58 27.86 27.61 27.57 27.51
3/16/2023 18:00 to 17:10 27.49 27.48 27.34 27.21 27.12 27.00
3/16/2023 17:00 to 16:10 27.11 26.98 27.21 26.78 26.40 26.00
3/16/2023 16:00 to 15:10 25.81 25.14 24.99 25.25 25.44 25.82
3/16/2023 15:00 to 14:10 25.54 25.64 26.20 26.53 26.46 26.30
3/16/2023 14:00 to 13:10 26.17 25.96 25.69 25.63 25.55 25.84
3/16/2023 13:00 to 12:10 26.30 27.23 27.37 27.40 27.31 27.31
3/16/2023 12:00 to 11:10 27.29 27.12 26.42 26.09 26.80 27.20
3/16/2023 11:00 to 10:10 27.01 27.35 27.46 27.35 27.29 27.41
3/16/2023 10:00 to 9:10 27.55 27.55 27.56 27.79 27.80 27.68
3/16/2023 09:00 to 8:10 27.73 27.68 27.72 27.68 27.73 27.72
3/16/2023 08:00 to 7:10 27.76 27.83 27.77 27.79 27.74 27.91
3/16/2023 07:00 to 6:10 27.72 27.72 27.82 27.78 27.69 27.71
3/16/2023 06:00 to 5:10 27.77 27.87 27.77 27.78 27.80 27.88
3/16/2023 05:00 to 4:10 27.82 27.81 27.84 27.77 27.87 27.93
3/16/2023 04:00 to 3:10 27.96 27.93 27.87 27.94 27.90 27.81
3/16/2023 03:00 to 2:10 27.81 27.90 27.84 27.85 27.85 27.84
3/16/2023 02:00 to 1:10 27.80 27.89 27.95 27.75 28.01 27.73
3/16/2023 01:00 to 0:10 27.81 27.78 27.97 27.98 28.19 28.08